Nearby METAR Reports

METAR is the scheduled surface weather observation taken hourly at civil and military airport locations.

METAR is an acronym from the French language and roughly translates as Aviation Routine Weather Report.

 

EGPL - Benbecula Island, United Kingdom
Distance from station: WNW 41mi, 66km
Updated: 18/01/2020 17:50
Clear
Clear
 Wind from W
Wind: W 10 mph , 17 km/h
Temperature: 6°C
Wind Chill: 3°C
Dew Point: 1°C
Humidity: 71%
Barometer: 1031 hPa
Clouds: Clear
Visibility: 6 miles , 10 km
2020/01/18 17:50 EGPL 181750Z AUTO 28009KT 9999 NCD 06/01 Q1031
EGPU - Tiree Island, United Kingdom
Distance from station: SSW 56mi, 90km
Updated: 18/01/2020 17:50
Few Clouds
Few Clouds
 Wind from WNW
Wind: WNW 9 mph , 15 km/h
Temperature: 4°C
Wind Chill: 1°C
Dew Point: 1°C
Humidity: 81%
Barometer: 1032 hPa
Clouds: Few Clouds
Visibility: 6 miles , 10 km
Cloud details: Few Clouds 732 m
2020/01/18 17:50 EGPU 181750Z 30008KT 9999 FEW024 04/01 Q1032
 
EGEO - Oban Airport, United Kingdom
Distance from station: SE 65mi, 105km
Updated: 17/01/2020 15:50
NOT Current
Nearby showers, Mostly cloudy
Nearby showers, Mostly cloudy
 Wind from W
Wind: W 18 mph , 30 km/h
Temperature: 7°C
Wind Chill: 3°C
Dew Point: 3°C
Humidity: 76%
Barometer: 1006 hPa
Summary: Nearby Showers
Clouds: Mostly cloudy
Visibility: 6 miles , 10 km
Cloud details: Mostly cloudy 945 m
2020/01/17 15:50 EGEO 171550Z 28016KT 9999 VCSH BKN031 07/03 Q1006
EGPO - Stornoway, United Kingdom
Distance from station: 0 66mi, 106km
Updated: 18/01/2020 17:50
Clear
Clear
 Wind from W
Wind: W 8 mph , 13 km/h
Temperature: 4°C
Wind Chill: 1°C
Dew Point: 1°C
Humidity: 81%
Barometer: 1029 hPa
Clouds: Clear
Visibility: 6 miles , 10 km
2020/01/18 17:50 EGPO 181750Z AUTO 26007KT 9999 NCD 04/01 Q1029
 
EGPE - Inverness/Dalcro, United Kingdom
Distance from station: ENE 88mi, 141km
Updated: 18/01/2020 17:50
Clear
Clear
 Wind from SSW
Wind: SSW 15 mph , 24 km/h
Temperature: 4°C
Wind Chill: -1°C
Dew Point: 0°C
Humidity: 75%
Barometer: 1029 hPa
Summary: Clear
Visibility: greater than 7 miles , 10 km
2020/01/18 17:50 EGPE 181750Z 21013KT CAVOK 04/00 Q1029
EGQA - Tain Range (saws, United Kingdom
Distance from station: ENE 97mi, 156km
Updated: 17/01/2020 11:50
NOT Current
Partly cloudy
Partly cloudy
 Wind from S
Wind: S 20 mph , 31 km/h
Clouds: Partly cloudy
Visibility: 6 miles , 10 km
Cloud details: Partly cloudy 1067 m
2020/01/17 11:50 EGQA 171150Z 18017KT 9999 SCT035 05/// Q0999 BLU
 
EGQK - Kinloss Raf, United Kingdom
Distance from station: ENE 107mi, 171km
Updated: 18/01/2020 16:50
Few Clouds
Few Clouds
 Wind from WSW
Wind: WSW 14 mph , 22 km/h
Temperature: 4°C
Wind Chill: -1°C
Dew Point: 1°C
Humidity: 81%
Barometer: 1027 hPa
Clouds: Few Clouds
Visibility: 6 miles , 10 km
Cloud details: Few Clouds 1524 m
2020/01/18 16:50 EGQK 181650Z AUTO 25012KT 9999 FEW050/// 04/01 Q1027
EGPI - Islay/Port Ellen, United Kingdom
Distance from station: S 110mi, 177km
Updated: 18/01/2020 17:20
Light rain, Mostly cloudy
Light rain, Mostly cloudy
 Wind from WNW
Wind: WNW 14 mph , 22 km/h
Temperature: 5°C
Wind Chill: 1°C
Dew Point: 3°C
Humidity: 87%
Barometer: 1032 hPa
Summary: Light rain
Clouds: Mostly cloudy
Visibility: 6 miles , 10 km
Cloud details: Mostly cloudy 975 m
2020/01/18 17:20 EGPI 181720Z AUTO 30012KT 270V350 9999 -RA BKN032/// 05/03 Q1032
 
EGQS - Lossiemouth Raf, United Kingdom
Distance from station: ENE 117mi, 188km
Updated: 18/01/2020 17:50
Clear
Clear
 Wind from SW
Wind: SW 9 mph , 15 km/h
Temperature: 3°C
Wind Chill: -1°C
Dew Point: 0°C
Humidity: 81%
Barometer: 1028 hPa
Summary: Clear
Visibility: greater than 7 miles , 10 km
2020/01/18 17:50 EGQS 181750Z 23008KT CAVOK 03/00 Q1028 RMK BLU
EGPF - Glasgow Airport, United Kingdom
Distance from station: SE 121mi, 195km
Updated: 18/01/2020 17:50
Clear
Clear
 Wind from SW
Wind: SW 12 mph , 19 km/h
Temperature: 2°C
Wind Chill: -2°C
Dew Point: 0°C
Humidity: 87%
Barometer: 1032 hPa
Clouds: Clear
Visibility: 6 miles , 10 km
2020/01/18 17:50 EGPF 181750Z AUTO 23010KT 9999 NCD 02/00 Q1032
 
EGEC - Campbeltown, United Kingdom
Distance from station: SSE 129mi, 207km
Updated: 17/01/2020 17:20
NOT Current
Partly cloudy
Partly cloudy
 Wind from NW
Wind: NW 21 mph , 33 km/h
Temperature: 7°C
Wind Chill: 3°C
Dew Point: 3°C
Humidity: 76%
Barometer: 1009 hPa
Clouds: Partly cloudy
Visibility: 6 miles , 10 km
Cloud details: Few Clouds 914 m
Partly cloudy 1463 m
2020/01/17 17:20 EGEC 171720Z 31018KT 9999 FEW030 SCT048 07/03 Q1009
EGPN - Dundee/Riverside, United Kingdom
Distance from station: ESE 137mi, 221km
Updated: 18/01/2020 15:50
NOT Current
Clear
Clear
 Wind from W
Wind: W 6 mph , 9 km/h
Temperature: 6°C
Wind Chill: 4°C
Dew Point: 1°C
Humidity: 71%
Barometer: 1027 hPa
Summary: Clear
Visibility: greater than 7 miles , 10 km
2020/01/18 15:50 EGPN 181550Z 26005KT 220V290 CAVOK 06/01 Q1027
 
EGPK - Prestwick(Civ/Na, United Kingdom
Distance from station: SSE 139mi, 224km
Updated: 18/01/2020 17:50
Few Clouds
Few Clouds
 Wind from WNW
Wind: WNW 5 mph , 7 km/h
Temperature: 4°C
Wind Chill: 2°C
Dew Point: 1°C
Humidity: 81%
Barometer: 1032 hPa
Clouds: Few Clouds
Visibility: 6 miles , 10 km
Cloud details: Few Clouds 945 m
2020/01/18 17:50 EGPK 181750Z 29004KT 9999 FEW031 04/01 Q1032
EGQL - Leuchars Raf, United Kingdom
Distance from station: ESE 145mi, 233km
Updated: 18/01/2020 17:50
Clear
Clear
 Wind from W
Wind: W 8 mph , 13 km/h
Temperature: 4°C
Wind Chill: 1°C
Dew Point: -1°C
Humidity: 70%
Barometer: 1029 hPa
Summary: Clear
Visibility: greater than 7 miles , 10 km
2020/01/18 17:50 EGQL 181750Z 27007KT CAVOK 04/M01 Q1029 BLU
 
EGPH - Edinburgh Airpor, United Kingdom
Distance from station: SE 145mi, 234km
Updated: 18/01/2020 17:50
Clear
Clear
 Wind from WSW
Wind: WSW 9 mph , 15 km/h
Temperature: 3°C
Wind Chill: -1°C
Dew Point: 1°C
Humidity: 87%
Barometer: 1030 hPa
Summary: Clear
Visibility: greater than 7 miles , 10 km
2020/01/18 17:50 EGPH 181750Z 24008KT CAVOK 03/01 Q1030
EGPC - Wick, United Kingdom
Distance from station: NE 146mi, 234km
Updated: 18/01/2020 17:50
Partly cloudy
Partly cloudy
 Wind from WNW
Wind: WNW 20 mph , 31 km/h
Temperature: 5°C
Wind Chill: 0°C
Dew Point: 2°C
Humidity: 81%
Barometer: 1026 hPa
Clouds: Partly cloudy
Visibility: 6 miles , 10 km
Cloud details: Partly cloudy 1067 m
Partly cloudy 1341 m
2020/01/18 17:50 EGPC 181750Z AUTO 30017KT 9999 SCT035/// SCT044/// 05/02 Q1026

-

free counters
QR Code Twitter Scottish Weather Network UK Weather Network
Argyll House B & B

Argyll House B & B is situated in North West Skye and is the perfect base to see all that the Isle of Skye has to offer. Bookings are been taken for 2020 and 2021